Time;durP1;ratioP1;P1;durP2;ratioP2;P2;SDS_P1;SDS_P2;PMS_P1;PMS_P2;Temp;Humidity;BMP_temperature;BMP_pressure;BME280_temperature;BME280_humidity;BME280_pressure;Samples;Min_cycle;Max_cycle;Signal;HPM_P1;HPM_P2
2021/04/27 00:00:19;;;;;;;8.32;5.05;;;205.50;2252.80;;;;;;5036115;28;20025;-71
2021/04/27 00:02:45;;;;;;;9.05;5.05;;;205.60;2252.80;;;;;;5035734;28;20139;-70
2021/04/27 00:05:14;;;;;;;11.13;5.22;;;205.70;2252.80;;;;;;5036141;28;20097;-71
2021/04/27 00:07:40;;;;;;;9.95;5.38;;;205.70;2252.80;;;;;;5033019;28;20450;-72
2021/04/27 00:10:09;;;;;;;13.15;6.18;;;205.70;2252.80;;;;;;5035810;28;20029;-72
2021/04/27 00:12:35;;;;;;;9.60;5.55;;;205.70;2252.80;;;;;;5036109;28;20167;-72
2021/04/27 00:15:01;;;;;;;9.68;5.18;;;205.70;2252.80;;;;;;5035955;28;20026;-71
2021/04/27 00:17:27;;;;;;;9.10;4.43;;;205.70;2252.80;;;;;;5035577;28;20468;-70
2021/04/27 00:19:53;;;;;;;11.85;5.28;;;230.40;2252.80;;;;;;5035858;28;20047;-71
2021/04/27 00:22:19;;;;;;;9.07;4.95;;;230.40;2252.80;;;;;;5035536;28;20072;-71
2021/04/27 00:24:44;;;;;;;15.20;6.10;;;230.40;2252.80;;;;;;5033068;28;20100;-72
2021/04/27 00:27:10;;;;;;;12.07;5.50;;;230.50;2252.80;;;;;;5036058;28;20017;-70
2021/04/27 00:29:36;;;;;;;15.05;5.53;;;230.50;2252.80;;;;;;5035648;28;20061;-71
2021/04/27 00:32:03;;;;;;;8.63;4.80;;;230.50;2252.80;;;;;;5035943;28;20104;-73
2021/04/27 00:34:29;;;;;;;11.02;6.28;;;230.60;2252.80;;;;;;5035667;28;20025;-72
2021/04/27 00:36:55;;;;;;;12.35;6.18;;;230.70;2252.80;;;;;;5035388;28;20021;-71
2021/04/27 00:39:20;;;;;;;12.13;6.05;;;230.70;2252.80;;;;;;5035826;28;20320;-73
2021/04/27 00:41:46;;;;;;;10.35;5.50;;;230.60;2252.80;;;;;;5035849;28;20311;-71
2021/04/27 00:44:12;;;;;;;9.70;4.80;;;230.70;2252.80;;;;;;5035400;28;20053;-71
2021/04/27 00:46:38;;;;;;;9.68;4.55;;;230.70;2252.80;;;;;;5035460;28;20053;-72
2021/04/27 00:49:05;;;;;;;9.23;4.32;;;230.80;2252.80;;;;;;5035689;28;20034;-71
2021/04/27 00:51:33;;;;;;;10.68;5.45;;;230.80;2252.80;;;;;;5035871;28;20102;-72
2021/04/27 00:53:58;;;;;;;19.17;5.60;;;230.80;2252.80;;;;;;5035675;28;20025;-69
2021/04/27 00:56:25;;;;;;;8.52;4.68;;;230.80;2252.80;;;;;;5036941;28;20026;-72
2021/04/27 00:58:50;;;;;;;10.27;5.35;;;230.70;2252.80;;;;;;5036674;28;20033;-69
2021/04/27 01:01:16;;;;;;;10.38;5.25;;;230.60;2252.80;;;;;;5036581;28;20075;-72
2021/04/27 01:03:42;;;;;;;9.27;4.53;;;230.50;2252.80;;;;;;5036545;28;20403;-71
2021/04/27 01:06:09;;;;;;;12.73;4.90;;;205.70;2252.80;;;;;;5036671;28;20112;-71
2021/04/27 01:08:45;;;;;;;9.50;5.47;;;205.70;2252.80;;;;;;5036756;28;20304;-70
2021/04/27 01:11:31;;;;;;;7.97;4.65;;;205.60;2252.80;;;;;;5037123;28;20071;-71
2021/04/27 01:14:24;;;;;;;9.32;4.53;;;205.50;2252.80;;;;;;5040699;28;20426;-71
2021/04/27 01:16:56;;;;;;;9.88;5.75;;;205.30;2252.80;;;;;;5040882;28;20048;-71
2021/04/27 01:19:31;;;;;;;8.88;5.60;;;205.30;2252.80;;;;;;5040208;28;20025;-71
2021/04/27 01:21:57;;;;;;;10.38;5.72;;;205.20;2252.80;;;;;;5040778;28;20120;-70
2021/04/27 01:24:35;;;;;;;10.70;5.95;;;205.20;2252.80;;;;;;5040654;28;20025;-71
2021/04/27 01:27:02;;;;;;;9.73;5.25;;;205.20;2252.80;;;;;;5040201;28;20031;-71
2021/04/27 01:29:30;;;;;;;11.93;6.13;;;205.10;2252.80;;;;;;5040021;28;20040;-71
2021/04/27 01:32:01;;;;;;;8.88;5.72;;;205.20;2252.80;;;;;;5040245;28;20338;-72
2021/04/27 01:34:31;;;;;;;12.50;6.10;;;205.20;2252.80;;;;;;5039748;28;20022;-71
2021/04/27 01:36:58;;;;;;;11.85;5.65;;;205.30;2252.80;;;;;;5040540;28;20112;-71
2021/04/27 01:39:27;;;;;;;14.70;6.88;;;205.40;2252.80;;;;;;5040077;28;20033;-71
2021/04/27 01:41:58;;;;;;;11.98;5.72;;;205.50;2252.80;;;;;;5038498;28;20048;-72
2021/04/27 01:44:25;;;;;;;10.23;6.03;;;205.50;2252.80;;;;;;5038757;28;20100;-71
2021/04/27 01:46:52;;;;;;;10.85;6.05;;;205.50;2252.80;;;;;;5038321;28;20046;-73
2021/04/27 01:49:17;;;;;;;11.63;5.30;;;205.60;2252.80;;;;;;5036108;28;20064;-71
2021/04/27 01:51:43;;;;;;;11.10;5.57;;;205.60;2252.80;;;;;;5039049;28;20048;-72
2021/04/27 01:54:10;;;;;;;10.82;6.25;;;205.60;2252.80;;;;;;5038111;28;20049;-71
2021/04/27 01:56:36;;;;;;;12.77;5.95;;;205.60;2252.80;;;;;;5038227;28;20453;-72
2021/04/27 01:59:04;;;;;;;8.40;5.88;;;205.60;2252.80;;;;;;5038519;28;20029;-71
2021/04/27 02:01:31;;;;;;;16.08;6.60;;;205.60;2252.80;;;;;;5038339;28;20032;-71
2021/04/27 02:03:57;;;;;;;13.75;7.10;;;205.70;2252.80;;;;;;5038110;28;20323;-72
2021/04/27 02:06:23;;;;;;;12.38;5.60;;;205.70;2252.80;;;;;;5039041;28;20025;-72
2021/04/27 02:08:58;;;;;;;14.23;6.15;;;205.60;2252.80;;;;;;5039548;28;20112;-71
2021/04/27 02:11:25;;;;;;;12.18;6.13;;;205.60;2252.80;;;;;;5039596;28;20018;-73
2021/04/27 02:13:50;;;;;;;12.60;6.20;;;205.50;2252.80;;;;;;5039766;28;20399;-71
2021/04/27 02:16:18;;;;;;;11.25;6.07;;;205.50;2252.80;;;;;;5039193;28;20073;-72
2021/04/27 02:18:54;;;;;;;12.48;7.05;;;205.60;2252.80;;;;;;5039349;28;20029;-71
2021/04/27 02:21:22;;;;;;;11.75;6.35;;;205.60;2252.80;;;;;;5039162;28;20021;-74
2021/04/27 02:23:48;;;;;;;11.45;6.50;;;205.60;2252.80;;;;;;5039042;28;20036;-72
2021/04/27 02:26:14;;;;;;;12.65;6.28;;;205.60;2252.80;;;;;;5039534;28;20112;-72
2021/04/27 02:28:42;;;;;;;11.82;6.45;;;205.50;2252.80;;;;;;5038298;28;20442;-73
2021/04/27 02:31:08;;;;;;;15.05;7.47;;;205.50;2252.80;;;;;;5038839;28;20163;-72
2021/04/27 02:33:34;;;;;;;14.68;7.10;;;205.60;2252.80;;;;;;5039358;28;20055;-72
2021/04/27 02:36:01;;;;;;;14.82;6.55;;;205.60;2252.80;;;;;;5038853;28;20033;-72
2021/04/27 02:38:27;;;;;;;13.70;6.80;;;205.60;2252.80;;;;;;5039059;28;20052;-72
2021/04/27 02:40:55;;;;;;;13.27;7.20;;;205.60;2252.80;;;;;;5038956;28;20029;-71
2021/04/27 02:43:21;;;;;;;12.35;6.35;;;205.60;2252.80;;;;;;5038697;28;20017;-72
2021/04/27 02:45:48;;;;;;;12.20;6.18;;;205.60;2252.80;;;;;;5038737;28;20107;-74
2021/04/27 02:48:16;;;;;;;12.98;6.70;;;205.70;2252.80;;;;;;5039225;28;20095;-71
2021/04/27 02:50:47;;;;;;;11.88;6.15;;;205.70;2252.80;;;;;;5039112;28;20333;-73
2021/04/27 02:53:14;;;;;;;15.18;6.13;;;205.70;2252.80;;;;;;5038809;28;20025;-72
2021/04/27 02:55:41;;;;;;;14.43;5.85;;;230.40;2252.80;;;;;;5038698;28;20342;-73
2021/04/27 02:58:07;;;;;;;9.65;5.68;;;230.40;2252.80;;;;;;5038397;28;20105;-71
2021/04/27 03:00:33;;;;;;;10.18;5.18;;;230.40;2252.80;;;;;;5038602;28;20028;-70
2021/04/27 03:02:59;;;;;;;11.07;6.00;;;230.50;2252.80;;;;;;5038680;28;20029;-71
2021/04/27 03:05:25;;;;;;;9.60;5.88;;;230.50;2252.80;;;;;;5038513;28;20075;-74
2021/04/27 03:07:51;;;;;;;11.43;6.25;;;230.40;2252.80;;;;;;5038463;28;20435;-72
2021/04/27 03:10:17;;;;;;;10.65;6.28;;;230.40;2252.80;;;;;;5038586;28;20129;-72
2021/04/27 03:12:44;;;;;;;14.20;6.22;;;230.40;2252.80;;;;;;5038148;28;20490;-71
2021/04/27 03:15:11;;;;;;;8.88;5.55;;;230.40;2252.80;;;;;;5038019;28;20051;-71
2021/04/27 03:17:38;;;;;;;12.05;6.15;;;230.40;2252.80;;;;;;5038286;28;20104;-72
2021/04/27 03:20:05;;;;;;;12.07;6.28;;;205.70;2252.80;;;;;;5037937;28;20327;-73
2021/04/27 03:22:31;;;;;;;10.07;5.38;;;230.40;2252.80;;;;;;5038136;28;20021;-73
2021/04/27 03:24:57;;;;;;;9.48;5.32;;;230.40;2252.80;;;;;;5038119;28;20044;-72
2021/04/27 03:27:23;;;;;;;11.02;5.50;;;205.70;2252.80;;;;;;5037976;28;20111;-72
2021/04/27 03:29:49;;;;;;;9.95;5.47;;;205.70;2252.80;;;;;;5037964;28;20403;-71
2021/04/27 03:32:15;;;;;;;15.32;6.20;;;205.70;2252.80;;;;;;5037725;28;20033;-71
2021/04/27 03:34:41;;;;;;;14.65;5.85;;;205.70;2252.80;;;;;;5037775;28;20465;-72
2021/04/27 03:37:06;;;;;;;12.18;6.20;;;205.70;2252.80;;;;;;5037948;28;20060;-72
2021/04/27 03:39:32;;;;;;;10.20;6.22;;;230.40;2252.80;;;;;;5037889;28;20029;-70
2021/04/27 03:41:58;;;;;;;11.93;6.03;;;230.40;2252.80;;;;;;5037368;28;20489;-73
2021/04/27 03:44:24;;;;;;;12.98;6.25;;;230.40;2252.80;;;;;;5037370;28;20024;-72
2021/04/27 03:46:50;;;;;;;11.20;6.50;;;230.40;2252.80;;;;;;5036625;28;20053;-71
2021/04/27 03:49:16;;;;;;;21.10;7.35;;;230.50;2252.80;;;;;;5037230;28;20112;-73
2021/04/27 03:51:42;;;;;;;14.07;7.13;;;230.50;2252.80;;;;;;5036851;28;20060;-72
2021/04/27 03:54:08;;;;;;;10.75;6.15;;;230.50;2252.80;;;;;;5037326;28;20017;-72
2021/04/27 03:56:34;;;;;;;10.50;6.28;;;230.40;2252.80;;;;;;5037332;28;20018;-72
2021/04/27 03:59:00;;;;;;;11.60;6.20;;;230.40;2252.80;;;;;;5037201;28;20052;-72
2021/04/27 04:01:26;;;;;;;10.35;5.57;;;230.40;2252.80;;;;;;5037552;28;20029;-71
2021/04/27 04:03:52;;;;;;;10.80;6.15;;;205.70;2252.80;;;;;;5037010;28;20048;-73
2021/04/27 04:06:17;;;;;;;13.95;7.28;;;205.70;2252.80;;;;;;5037071;28;20029;-72
2021/04/27 04:08:44;;;;;;;17.08;7.57;;;205.60;2252.80;;;;;;5036399;28;20071;-72
2021/04/27 04:11:10;;;;;;;11.88;7.38;;;205.50;2252.80;;;;;;5034235;28;20021;-72
2021/04/27 04:13:36;;;;;;;12.52;6.97;;;205.50;2252.80;;;;;;5037377;28;20029;-72
2021/04/27 04:16:01;;;;;;;11.80;7.15;;;205.50;2252.80;;;;;;5037025;28;20032;-71
2021/04/27 04:18:27;;;;;;;12.65;7.82;;;205.60;2252.80;;;;;;5037120;28;20035;-72
2021/04/27 04:20:54;;;;;;;11.13;7.05;;;205.50;2252.80;;;;;;5036669;28;20049;-71
2021/04/27 04:23:20;;;;;;;11.80;6.93;;;205.50;2252.80;;;;;;5036896;28;20032;-73
2021/04/27 04:25:46;;;;;;;10.38;6.45;;;205.60;2252.80;;;;;;5037216;28;20033;-71
2021/04/27 04:28:12;;;;;;;13.48;7.85;;;205.60;2252.80;;;;;;5036838;28;20025;-71
2021/04/27 04:30:38;;;;;;;11.30;7.47;;;205.70;2252.80;;;;;;5037337;28;20040;-72
2021/04/27 04:33:04;;;;;;;20.17;9.45;;;230.40;2252.80;;;;;;5037412;28;20407;-72
2021/04/27 04:35:31;;;;;;;13.88;8.30;;;230.40;2252.80;;;;;;5036847;28;20025;-72
2021/04/27 04:37:58;;;;;;;13.65;8.63;;;230.50;2252.80;;;;;;5036858;28;20087;-72
2021/04/27 04:40:24;;;;;;;13.13;8.07;;;230.60;2252.80;;;;;;5036529;28;20477;-72
2021/04/27 04:42:50;;;;;;;10.40;6.28;;;230.70;2252.80;;;;;;5036590;28;20025;-72
2021/04/27 04:45:17;;;;;;;11.23;7.40;;;230.70;2252.80;;;;;;5037078;28;20041;-71
2021/04/27 04:47:44;;;;;;;15.85;7.22;;;230.70;2252.80;;;;;;5039181;28;20441;-72
2021/04/27 04:50:12;;;;;;;16.08;8.43;;;230.60;2252.80;;;;;;5038865;28;20457;-72
2021/04/27 04:52:38;;;;;;;10.93;6.90;;;230.50;2252.80;;;;;;5039427;28;20342;-72
2021/04/27 04:55:06;;;;;;;13.20;6.90;;;205.70;2252.80;;;;;;5039415;28;20026;-71
2021/04/27 04:57:33;;;;;;;14.63;7.35;;;205.50;2252.80;;;;;;5039686;28;20025;-70
2021/04/27 04:59:59;;;;;;;15.23;8.10;;;205.40;2252.80;;;;;;5039862;28;20021;-71
2021/04/27 05:02:25;;;;;;;12.68;7.45;;;205.50;2252.80;;;;;;5039855;28;20026;-70
2021/04/27 05:04:51;;;;;;;12.60;8.05;;;205.60;2252.80;;;;;;5038810;28;20326;-72
2021/04/27 05:07:17;;;;;;;16.50;8.13;;;205.70;2252.80;;;;;;5038835;28;20466;-70
2021/04/27 05:09:43;;;;;;;12.52;8.80;;;230.40;2252.80;;;;;;5038451;28;20029;-71
2021/04/27 05:12:09;;;;;;;17.77;10.10;;;230.60;2252.80;;;;;;5039594;28;20374;-72
2021/04/27 05:14:42;;;;;;;14.07;10.23;;;230.80;2252.80;;;;;;5039107;28;20161;-72
2021/04/27 05:17:09;;;;;;;13.85;9.60;;;231.00;2252.80;;;;;;5038178;28;20021;-71
2021/04/27 05:19:35;;;;;;;18.23;8.63;;;231.00;2252.80;;;;;;5037643;28;20029;-72
2021/04/27 05:22:02;;;;;;;13.75;8.15;;;231.00;2252.80;;;;;;5037060;28;20095;-73
2021/04/27 05:24:28;;;;;;;12.43;8.32;;;231.00;2252.80;;;;;;5038415;28;20445;-72
2021/04/27 05:26:54;;;;;;;16.02;8.50;;;231.00;2252.80;;;;;;5038665;28;20025;-71
2021/04/27 05:29:20;;;;;;;13.05;9.18;;;231.00;2252.80;;;;;;5037972;28;20434;-72
2021/04/27 05:31:48;;;;;;;12.57;8.30;;;230.90;2252.80;;;;;;5038121;28;20032;-72
2021/04/27 05:34:15;;;;;;;18.35;9.48;;;230.90;2252.80;;;;;;5038487;28;20318;-71
2021/04/27 05:36:41;;;;;;;18.67;13.40;;;231.00;2252.80;;;;;;5038320;28;20095;-71
2021/04/27 05:39:07;;;;;;;16.65;12.48;;;231.30;2252.80;;;;;;5038327;28;20346;-71
2021/04/27 05:41:32;;;;;;;23.23;16.63;;;256.20;2252.80;;;;;;5039022;28;20033;-72
2021/04/27 05:43:58;;;;;;;19.17;13.15;;;256.30;2252.80;;;;;;5038911;28;20034;-72
2021/04/27 05:46:24;;;;;;;15.95;11.77;;;256.50;2252.80;;;;;;5012122;28;760256;-73
2021/04/27 05:48:50;;;;;;;18.35;10.57;;;256.70;2252.80;;;;;;5039969;28;20342;-72
2021/04/27 05:51:16;;;;;;;18.02;10.73;;;256.90;2252.80;;;;;;5040222;28;20048;-72
2021/04/27 05:53:41;;;;;;;17.05;11.90;;;281.60;2278.40;;;;;;5039423;28;20057;-71
2021/04/27 05:56:07;;;;;;;27.75;18.73;;;281.70;2278.40;;;;;;5040199;28;20029;-71
2021/04/27 05:58:33;;;;;;;16.77;9.20;;;281.80;2278.40;;;;;;5039188;28;20079;-72
2021/04/27 06:00:59;;;;;;;17.60;10.25;;;281.80;2278.40;;;;;;5039485;28;20026;-72
2021/04/27 06:03:25;;;;;;;13.50;9.02;;;281.80;2278.40;;;;;;5039524;28;20064;-73
2021/04/27 06:05:50;;;;;;;15.57;11.95;;;281.80;2278.40;;;;;;5039469;28;20093;-72
2021/04/27 06:08:16;;;;;;;16.10;8.85;;;281.90;2278.40;;;;;;5039596;28;20056;-72
2021/04/27 06:10:42;;;;;;;22.70;11.05;;;282.10;2278.40;;;;;;5039653;28;20030;-72
2021/04/27 06:13:08;;;;;;;16.08;9.73;;;282.10;2278.40;;;;;;5039326;28;20029;-72
2021/04/27 06:15:33;;;;;;;17.13;11.45;;;282.30;2278.40;;;;;;5039807;28;20034;-72
2021/04/27 06:17:59;;;;;;;20.77;15.40;;;282.30;2278.40;;;;;;5039529;28;20112;-72
2021/04/27 06:20:25;;;;;;;27.95;14.60;;;282.50;2278.40;;;;;;5038997;28;20036;-72
2021/04/27 06:22:51;;;;;;;25.25;11.88;;;307.20;2304.00;;;;;;5039691;28;20025;-71
2021/04/27 06:25:17;;;;;;;22.67;12.23;;;307.30;2304.00;;;;;;5039316;28;20026;-71
2021/04/27 06:27:42;;;;;;;19.98;11.25;;;307.50;2304.00;;;;;;5038795;28;20048;-71
2021/04/27 06:30:10;;;;;;;17.42;11.15;;;307.60;2304.00;;;;;;5038832;28;20418;-71
2021/04/27 06:32:35;;;;;;;21.73;12.75;;;307.60;2304.00;;;;;;5039353;28;20029;-71
2021/04/27 06:35:03;;;;;;;23.90;12.20;;;307.60;2304.00;;;;;;5039173;28;20029;-71
2021/04/27 06:37:28;;;;;;;19.83;12.85;;;307.30;2304.00;;;;;;5038858;28;20017;-71
2021/04/27 06:39:54;;;;;;;21.27;11.70;;;307.30;2304.00;;;;;;5039070;28;20109;-72
2021/04/27 06:42:20;;;;;;;32.20;12.88;;;282.50;2278.40;;;;;;5038490;28;20025;-70
2021/04/27 06:44:46;;;;;;;28.90;11.70;;;307.40;2304.00;;;;;;5039104;28;20104;-71
2021/04/27 06:47:12;;;;;;;25.73;11.20;;;307.60;2304.00;;;;;;5037697;28;20053;-71
2021/04/27 06:49:39;;;;;;;21.88;10.23;;;307.70;2304.00;;;;;;5037881;28;20067;-72
2021/04/27 06:52:06;;;;;;;22.13;10.68;;;307.90;2304.00;;;;;;5038430;28;20338;-70
2021/04/27 06:54:32;;;;;;;18.02;11.15;;;308.10;2304.00;;;;;;5038807;28;20025;-73
2021/04/27 06:56:59;;;;;;;46.78;12.38;;;332.90;2329.60;;;;;;5038746;28;20060;-72
2021/04/27 06:59:30;;;;;;;33.55;19.38;;;333.10;2329.60;;;;;;5038959;28;20025;-72
2021/04/27 07:01:58;;;;;;;25.25;11.95;;;333.30;2329.60;;;;;;5038544;28;20124;-72
2021/04/27 07:04:23;;;;;;;19.70;10.23;;;333.30;2329.60;;;;;;5038566;28;20080;-71
2021/04/27 07:06:49;;;;;;;25.67;11.20;;;333.40;2329.60;;;;;;5038263;28;20045;-72
2021/04/27 07:09:15;;;;;;;24.40;10.57;;;333.50;2329.60;;;;;;5037098;28;20033;-71
2021/04/27 07:11:41;;;;;;;21.30;9.88;;;333.30;2329.60;;;;;;5038476;28;20026;-72
2021/04/27 07:14:06;;;;;;;24.23;10.00;;;333.30;2329.60;;;;;;5038382;28;20452;-72
2021/04/27 07:16:32;;;;;;;19.67;10.95;;;333.30;2329.60;;;;;;5038157;28;20025;-72
2021/04/27 07:18:58;;;;;;;19.15;9.90;;;333.30;2329.60;;;;;;5038005;28;20033;-71
2021/04/27 07:21:24;;;;;;;21.90;9.55;;;333.40;2329.60;;;;;;5038519;28;20319;-70
2021/04/27 07:23:50;;;;;;;18.05;8.23;;;333.60;2329.60;;;;;;5037963;28;20029;-72
2021/04/27 07:26:16;;;;;;;18.33;8.20;;;333.60;2329.60;;;;;;5036787;28;20040;-72
2021/04/27 07:28:42;;;;;;;25.73;8.77;;;333.70;2329.60;;;;;;5036439;28;20033;-72
2021/04/27 07:31:08;;;;;;;19.50;8.27;;;358.40;2329.60;;;;;;5036370;28;20040;-72
2021/04/27 07:33:34;;;;;;;15.50;8.30;;;358.50;2329.60;;;;;;5036885;28;20029;-72
2021/04/27 07:36:00;;;;;;;17.02;9.43;;;358.80;2329.60;;;;;;5036500;28;20021;-72
2021/04/27 07:38:26;;;;;;;16.95;7.80;;;359.20;2329.60;;;;;;5035998;28;20057;-72
2021/04/27 07:40:51;;;;;;;24.88;8.30;;;359.20;2329.60;;;;;;5036397;28;20104;-72
2021/04/27 07:43:17;;;;;;;18.13;7.65;;;358.90;2329.60;;;;;;5036687;28;20030;-73
2021/04/27 07:45:44;;;;;;;19.73;8.07;;;359.20;2329.60;;;;;;5018222;28;20017;-72
2021/04/27 07:48:10;;;;;;;16.00;7.82;;;359.30;2329.60;;;;;;5033660;28;20143;-72
2021/04/27 07:50:37;;;;;;;17.20;8.00;;;359.30;2329.60;;;;;;5036139;28;20067;-73
2021/04/27 07:53:04;;;;;;;19.65;10.15;;;384.10;2329.60;;;;;;5035893;28;20018;-73
2021/04/27 07:55:30;;;;;;;20.38;10.65;;;384.20;2329.60;;;;;;5036032;28;20072;-73
2021/04/27 07:57:56;;;;;;;15.43;9.35;;;384.20;2329.60;;;;;;5035609;28;20033;-72
2021/04/27 08:00:23;;;;;;;16.85;7.82;;;384.50;2329.60;;;;;;5036048;28;20103;-72
2021/04/27 08:02:50;;;;;;;12.93;7.65;;;384.70;2329.60;;;;;;5035979;28;20384;-74
2021/04/27 08:05:17;;;;;;;17.15;7.68;;;384.70;2329.60;;;;;;5035097;28;20125;-72
2021/04/27 08:07:43;;;;;;;22.30;8.00;;;384.70;2329.60;;;;;;5035095;28;20049;-72
2021/04/27 08:10:13;;;;;;;16.77;9.07;;;409.60;2355.20;;;;;;5035024;28;20025;-72
2021/04/27 08:12:44;;;;;;;13.52;8.32;;;409.60;2355.20;;;;;;5034382;28;20087;-72
2021/04/27 08:15:12;;;;;;;17.23;9.60;;;409.60;2355.20;;;;;;5032742;28;20392;-72
2021/04/27 08:17:38;;;;;;;17.38;9.10;;;409.70;2355.20;;;;;;5034804;28;20071;-73
2021/04/27 08:20:07;;;;;;;14.98;8.40;;;384.80;2329.60;;;;;;5034607;28;20029;-73
2021/04/27 08:22:33;;;;;;;19.80;8.88;;;409.60;2355.20;;;;;;5035136;28;20028;-72
2021/04/27 08:24:59;;;;;;;17.27;7.82;;;384.80;2329.60;;;;;;5034867;28;20053;-73
2021/04/27 08:27:24;;;;;;;25.27;10.20;;;384.60;2329.60;;;;;;5034641;28;20061;-73
2021/04/27 08:29:54;;;;;;;19.83;9.63;;;384.40;2329.60;;;;;;5034442;28;20033;-73
2021/04/27 08:32:21;;;;;;;21.17;10.05;;;384.40;2329.60;;;;;;5033329;28;20714;-72
2021/04/27 08:34:47;;;;;;;22.65;8.85;;;384.20;2329.60;;;;;;5034197;28;20112;-71
2021/04/27 08:37:13;;;;;;;22.70;9.80;;;384.30;2329.60;;;;;;5034755;28;20115;-72
2021/04/27 08:39:39;;;;;;;21.33;7.82;;;384.40;2329.60;;;;;;5034257;28;20084;-72
2021/04/27 08:42:06;;;;;;;15.30;7.65;;;384.60;2329.60;;;;;;5034222;28;20029;-71
2021/04/27 08:44:32;;;;;;;16.45;8.00;;;384.70;2329.60;;;;;;5034756;28;20347;-71
2021/04/27 08:46:57;;;;;;;15.93;8.48;;;384.70;2329.60;;;;;;5034787;28;20339;-72
2021/04/27 08:49:24;;;;;;;24.17;8.85;;;384.70;2329.60;;;;;;5035501;28;20091;-71
2021/04/27 08:51:53;;;;;;;22.80;8.10;;;384.70;2329.60;;;;;;5035391;28;20095;-71
2021/04/27 08:54:20;;;;;;;13.57;8.20;;;384.70;2329.60;;;;;;5035110;28;20072;-72
2021/04/27 08:56:47;;;;;;;14.57;9.38;;;409.60;2355.20;;;;;;5035144;28;20034;-72
2021/04/27 08:59:14;;;;;;;81.88;50.30;;;409.90;2355.20;;;;;;5034978;28;20379;-70
2021/04/27 09:01:39;;;;;;;38.95;11.57;;;410.30;2355.20;;;;;;5034941;28;20017;-70
2021/04/27 09:04:06;;;;;;;28.38;10.30;;;435.30;2355.20;;;;;;5035396;28;20404;-72
2021/04/27 09:06:33;;;;;;;16.15;8.98;;;435.40;2355.20;;;;;;5035399;28;20021;-70
2021/04/27 09:08:58;;;;;;;19.85;8.95;;;435.60;2355.20;;;;;;5034189;28;20167;-71
2021/04/27 09:11:33;;;;;;;22.38;9.07;;;435.70;2355.20;;;;;;5032842;28;20116;-71
2021/04/27 09:14:14;;;;;;;20.48;8.75;;;435.90;2355.20;;;;;;5035222;28;20734;-70
2021/04/27 09:16:47;;;;;;;16.75;8.10;;;435.60;2355.20;;;;;;5034329;28;20422;-73
2021/04/27 09:19:29;;;;;;;15.43;8.10;;;435.70;2355.20;;;;;;5035362;28;20416;-71
2021/04/27 09:22:15;;;;;;;13.27;8.30;;;435.70;2355.20;;;;;;5032696;28;20030;-72
2021/04/27 09:24:45;;;;;;;23.35;8.55;;;435.90;2355.20;;;;;;5034626;28;20022;-72
2021/04/27 09:27:12;;;;;;;15.82;7.88;;;436.00;2355.20;;;;;;5034806;28;20166;-71
2021/04/27 09:29:42;;;;;;;14.57;7.78;;;435.90;2355.20;;;;;;5034507;28;20060;-72
2021/04/27 09:32:10;;;;;;;12.43;8.07;;;436.00;2355.20;;;;;;5033340;28;20022;-72
2021/04/27 09:34:38;;;;;;;11.35;6.90;;;435.90;2355.20;;;;;;5039070;28;20028;-71
2021/04/27 09:37:04;;;;;;;;;;;436.10;2355.20;;;;;;5037631;28;20030;-71
2021/04/27 09:39:48;;;;;;;15.05;7.82;;;460.90;2380.80;;;;;;5037379;28;19912;-72
2021/04/27 09:42:21;;;;;;;10.45;7.32;;;460.80;2380.80;;;;;;5037634;28;20074;-74
2021/04/27 09:44:50;;;;;;;14.20;9.32;;;436.10;2355.20;;;;;;5037284;28;20021;-73
2021/04/27 09:47:31;;;;;;;17.73;8.70;;;436.10;2355.20;;;;;;5034741;28;20540;-72
2021/04/27 09:49:59;;;;;;;11.25;7.35;;;460.90;2380.80;;;;;;5034608;28;20069;-73
2021/04/27 09:52:26;;;;;;;;;;;461.30;2380.80;;;;;;5038256;28;20031;-72
2021/04/27 09:54:56;;;;;;;10.85;7.32;;;461.60;2380.80;;;;;;5038464;28;19905;-72
2021/04/27 09:57:30;;;;;;;11.90;7.65;;;486.50;2380.80;;;;;;5038408;28;20036;-72
2021/04/27 10:00:20;;;;;;;11.02;7.53;;;461.70;2380.80;;;;;;5035839;28;20029;-72
2021/04/27 10:02:46;;;;;;;11.48;6.60;;;461.50;2380.80;;;;;;5038941;28;20036;-73
2021/04/27 10:05:12;;;;;;;13.65;7.93;;;461.10;2380.80;;;;;;5039214;28;20022;-72
2021/04/27 10:07:43;;;;;;;13.55;7.13;;;461.00;2380.80;;;;;;5039213;28;20029;-72
2021/04/27 10:10:14;;;;;;;11.27;6.63;;;461.30;2380.80;;;;;;5038144;28;20383;-73
2021/04/27 10:12:41;;;;;;;12.52;7.40;;;461.40;2380.80;;;;;;5035839;28;20453;-71
2021/04/27 10:15:08;;;;;;;12.13;7.80;;;461.10;2380.80;;;;;;5037731;28;20079;-73
2021/04/27 10:17:34;;;;;;;9.52;7.10;;;461.20;2380.80;;;;;;5036293;28;20025;-72
2021/04/27 10:20:04;;;;;;;10.45;7.20;;;461.10;2380.80;;;;;;5038151;28;20029;-72
2021/04/27 10:22:30;;;;;;;9.63;7.00;;;460.90;2380.80;;;;;;5035654;28;20427;-73
2021/04/27 10:24:57;;;;;;;10.45;6.72;;;461.00;2380.80;;;;;;5020217;28;20038;-71
2021/04/27 10:27:27;;;;;;;11.05;7.15;;;461.20;2380.80;;;;;;5037854;28;20025;-73
2021/04/27 10:30:17;;;;;;;9.70;6.53;;;461.50;2380.80;;;;;;5036998;28;20350;-70
2021/04/27 10:33:06;;;;;;;13.38;6.65;;;461.20;2380.80;;;;;;5037522;28;20320;-71
2021/04/27 10:35:37;;;;;;;10.70;7.07;;;460.80;2380.80;;;;;;5036114;28;20022;-71
2021/04/27 10:38:08;;;;;;;13.68;7.25;;;436.10;2355.20;;;;;;5036612;28;20103;-72
2021/04/27 10:41:01;;;;;;;8.57;6.53;;;436.10;2355.20;;;;;;5037536;28;20026;-72
2021/04/27 10:43:27;;;;;;;10.30;6.55;;;436.10;2355.20;;;;;;5034806;28;20030;-71
2021/04/27 10:46:17;;;;;;;10.65;6.53;;;460.90;2380.80;;;;;;5035921;28;20021;-71
2021/04/27 10:48:47;;;;;;;10.93;6.13;;;461.10;2380.80;;;;;;5025706;28;20046;-72
2021/04/27 10:51:35;;;;;;;14.30;7.10;;;461.10;2380.80;;;;;;5036420;28;20087;-72
2021/04/27 10:54:13;;;;;;;;;;;461.20;2380.80;;;;;;5036517;28;20021;-72
2021/04/27 10:57:05;;;;;;;10.02;6.60;;;461.40;2380.80;;;;;;5034789;28;19991;-71
2021/04/27 10:59:56;;;;;;;8.82;5.80;;;461.40;2380.80;;;;;;5026494;28;20045;-71
2021/04/27 11:02:30;;;;;;;10.80;6.00;;;461.10;2380.80;;;;;;5038951;28;20025;-71
2021/04/27 11:05:22;;;;;;;9.57;5.68;;;461.10;2380.80;;;;;;5038628;28;20052;-71
2021/04/27 11:08:07;;;;;;;10.40;6.07;;;461.10;2380.80;;;;;;5038218;28;20319;-72
2021/04/27 11:10:43;;;;;;;11.20;6.00;;;460.90;2380.80;;;;;;5038121;28;20026;-73
2021/04/27 11:13:09;;;;;;;9.85;6.30;;;461.30;2380.80;;;;;;5038206;28;20021;-72
2021/04/27 11:15:37;;;;;;;12.80;6.25;;;461.40;2380.80;;;;;;5038341;28;20025;-71
2021/04/27 11:18:07;;;;;;;13.25;7.25;;;486.40;2380.80;;;;;;5037986;28;20370;-70
2021/04/27 11:21:06;;;;;;;11.60;6.63;;;486.60;2380.80;;;;;;5033615;28;20038;-71
2021/04/27 11:23:51;;;;;;;11.60;6.80;;;486.90;2380.80;;;;;;5031637;28;20136;-72
2021/04/27 11:26:31;;;;;;;9.77;6.18;;;486.80;2380.80;;;;;;5036502;28;20037;-71
2021/04/27 11:29:05;;;;;;;14.02;6.40;;;486.90;2380.80;;;;;;5036663;28;20057;-72
2021/04/27 11:31:50;;;;;;;12.13;6.00;;;486.40;2380.80;;;;;;5036257;28;20075;-72
2021/04/27 11:34:16;;;;;;;9.75;5.85;;;486.50;2380.80;;;;;;5035394;28;20037;-72
2021/04/27 11:36:42;;;;;;;10.63;6.45;;;461.70;2380.80;;;;;;5036803;28;20029;-72
2021/04/27 11:39:29;;;;;;;13.30;6.35;;;461.60;2380.80;;;;;;5033682;28;20021;-72
2021/04/27 11:41:56;;;;;;;10.65;6.05;;;461.60;2380.80;;;;;;5035062;28;20025;-72
2021/04/27 11:44:33;;;;;;;10.32;6.07;;;461.30;2380.80;;;;;;5036707;28;20025;-73
2021/04/27 11:47:03;;;;;;;13.20;6.85;;;461.30;2380.80;;;;;;5034818;28;20049;-71
2021/04/27 11:49:47;;;;;;;11.82;6.22;;;461.20;2380.80;;;;;;5035087;28;20116;-72
2021/04/27 11:52:15;;;;;;;9.13;6.15;;;461.50;2380.80;;;;;;5032983;28;20342;-72
2021/04/27 11:54:41;;;;;;;10.05;6.90;;;461.60;2380.80;;;;;;5035601;28;20315;-72
2021/04/27 11:57:17;;;;;;;10.30;6.65;;;461.60;2380.80;;;;;;5035882;28;20017;-72
2021/04/27 11:59:43;;;;;;;10.93;6.47;;;486.40;2380.80;;;;;;5033936;28;20375;-72
2021/04/27 12:02:13;;;;;;;8.95;6.22;;;461.70;2380.80;;;;;;5035068;28;20021;-72
2021/04/27 12:04:42;;;;;;;9.75;6.72;;;486.80;2380.80;;;;;;5032551;28;20374;-71
2021/04/27 12:07:07;;;;;;;10.63;6.85;;;486.80;2380.80;;;;;;5036870;28;20418;-73
2021/04/27 12:09:41;;;;;;;11.65;6.63;;;487.00;2380.80;;;;;;5037355;28;20087;-71
2021/04/27 12:12:09;;;;;;;9.30;6.13;;;487.00;2380.80;;;;;;5037415;28;20033;-72
2021/04/27 12:14:35;;;;;;;8.40;5.63;;;487.10;2380.80;;;;;;5037157;28;20017;-71